sensor_id;sensor_type;location;lat;lon;timestamp;pressure;altitude;pressure_sealevel;temperature;humidity
40570;BME280;26270;34.428;-119.710;2023-02-11T00:01:06;101406.20;;;22.34;20.08
40570;BME280;26270;34.428;-119.710;2023-02-11T00:03:35;101406.15;;;22.18;20.34
40570;BME280;26270;34.428;-119.710;2023-02-11T00:06:05;101412.54;;;22.08;21.15
40570;BME280;26270;34.428;-119.710;2023-02-11T00:08:34;101415.71;;;22.12;21.14
40570;BME280;26270;34.428;-119.710;2023-02-11T00:11:03;101419.13;;;22.15;21.96
40570;BME280;26270;34.428;-119.710;2023-02-11T00:13:31;101415.90;;;22.10;22.65
40570;BME280;26270;34.428;-119.710;2023-02-11T00:15:59;101415.25;;;21.89;22.29
40570;BME280;26270;34.428;-119.710;2023-02-11T00:18:33;101416.88;;;21.90;22.72
40570;BME280;26270;34.428;-119.710;2023-02-11T00:21:05;101415.36;;;21.92;22.68
40570;BME280;26270;34.428;-119.710;2023-02-11T00:23:33;101416.67;;;21.87;23.05
40570;BME280;26270;34.428;-119.710;2023-02-11T00:26:02;101411.40;;;21.73;23.99
40570;BME280;26270;34.428;-119.710;2023-02-11T00:28:31;101410.55;;;21.69;24.01
40570;BME280;26270;34.428;-119.710;2023-02-11T00:30:59;101408.84;;;21.81;24.39
40570;BME280;26270;34.428;-119.710;2023-02-11T00:33:27;101411.39;;;21.55;24.96
40570;BME280;26270;34.428;-119.710;2023-02-11T00:35:55;101412.92;;;21.57;25.74
40570;BME280;26270;34.428;-119.710;2023-02-11T00:38:23;101414.52;;;21.63;26.16
40570;BME280;26270;34.428;-119.710;2023-02-11T00:40:52;101414.83;;;21.65;26.65
40570;BME280;26270;34.428;-119.710;2023-02-11T00:43:20;101416.29;;;21.58;27.20
40570;BME280;26270;34.428;-119.710;2023-02-11T00:45:48;101412.59;;;21.25;28.40
40570;BME280;26270;34.428;-119.710;2023-02-11T00:48:17;101411.93;;;21.09;28.91
40570;BME280;26270;34.428;-119.710;2023-02-11T00:50:45;101409.13;;;21.07;28.58
40570;BME280;26270;34.428;-119.710;2023-02-11T00:53:13;101406.86;;;21.05;28.63
40570;BME280;26270;34.428;-119.710;2023-02-11T00:55:41;101403.78;;;20.94;29.68
40570;BME280;26270;34.428;-119.710;2023-02-11T00:58:10;101402.96;;;20.94;30.50
40570;BME280;26270;34.428;-119.710;2023-02-11T01:00:38;101404.25;;;20.67;31.43
40570;BME280;26270;34.428;-119.710;2023-02-11T01:03:06;101403.81;;;20.68;32.35
40570;BME280;26270;34.428;-119.710;2023-02-11T01:05:35;101402.23;;;20.77;32.87
40570;BME280;26270;34.428;-119.710;2023-02-11T01:08:03;101401.89;;;20.51;33.41
40570;BME280;26270;34.428;-119.710;2023-02-11T01:10:31;101398.75;;;20.35;34.46
40570;BME280;26270;34.428;-119.710;2023-02-11T01:12:59;101397.96;;;20.43;34.41
40570;BME280;26270;34.428;-119.710;2023-02-11T01:15:28;101395.05;;;20.16;34.87
40570;BME280;26270;34.428;-119.710;2023-02-11T01:17:56;101396.23;;;20.21;34.26
40570;BME280;26270;34.428;-119.710;2023-02-11T01:20:26;101396.46;;;19.97;34.34
40570;BME280;26270;34.428;-119.710;2023-02-11T01:22:54;101396.45;;;19.89;34.13
40570;BME280;26270;34.428;-119.710;2023-02-11T01:25:22;101396.10;;;19.91;34.03
40570;BME280;26270;34.428;-119.710;2023-02-11T01:27:51;101395.84;;;20.03;34.05
40570;BME280;26270;34.428;-119.710;2023-02-11T01:30:18;101395.92;;;19.83;34.93
40570;BME280;26270;34.428;-119.710;2023-02-11T01:32:47;101395.17;;;19.82;35.17
40570;BME280;26270;34.428;-119.710;2023-02-11T01:35:15;101394.30;;;19.61;34.91
40570;BME280;26270;34.428;-119.710;2023-02-11T01:37:43;101393.15;;;19.66;34.25
40570;BME280;26270;34.428;-119.710;2023-02-11T01:40:14;101396.22;;;19.77;34.25
40570;BME280;26270;34.428;-119.710;2023-02-11T01:42:43;101402.70;;;19.43;34.46
40570;BME280;26270;34.428;-119.710;2023-02-11T01:47:21;101400.70;;;19.54;33.75
40570;BME280;26270;34.428;-119.710;2023-02-11T01:49:51;101396.46;;;19.40;34.05
40570;BME280;26270;34.428;-119.710;2023-02-11T01:52:24;101393.49;;;19.27;34.69
40570;BME280;26270;34.428;-119.710;2023-02-11T01:54:56;101394.76;;;19.11;35.02
40570;BME280;26270;34.428;-119.710;2023-02-11T01:57:28;101398.62;;;18.99;35.69
40570;BME280;26270;34.428;-119.710;2023-02-11T02:00:04;101397.46;;;19.02;35.25
40570;BME280;26270;34.428;-119.710;2023-02-11T02:02:38;101404.81;;;18.83;36.17
40570;BME280;26270;34.428;-119.710;2023-02-11T02:05:18;101403.29;;;18.88;36.17
40570;BME280;26270;34.428;-119.710;2023-02-11T02:07:55;101403.86;;;18.67;36.67
40570;BME280;26270;34.428;-119.710;2023-02-11T02:10:25;101400.91;;;18.39;37.42
40570;BME280;26270;34.428;-119.710;2023-02-11T02:12:55;101403.98;;;18.35;37.50
40570;BME280;26270;34.428;-119.710;2023-02-11T02:15:27;101406.25;;;18.39;37.78
40570;BME280;26270;34.428;-119.710;2023-02-11T02:18:12;101405.72;;;18.34;37.75
40570;BME280;26270;34.428;-119.710;2023-02-11T02:22:31;101406.04;;;18.09;39.18
40570;BME280;26270;34.428;-119.710;2023-02-11T02:25:30;101405.65;;;18.01;39.08
40570;BME280;26270;34.428;-119.710;2023-02-11T02:28:18;101409.74;;;18.04;39.53
40570;BME280;26270;34.428;-119.710;2023-02-11T02:31:08;101409.43;;;17.94;39.76
40570;BME280;26270;34.428;-119.710;2023-02-11T02:33:46;101409.86;;;18.00;40.33
40570;BME280;26270;34.428;-119.710;2023-02-11T02:36:22;101409.78;;;18.04;40.60
40570;BME280;26270;34.428;-119.710;2023-02-11T02:38:55;101411.46;;;17.77;41.09
40570;BME280;26270;34.428;-119.710;2023-02-11T02:41:29;101416.14;;;17.35;42.15
40570;BME280;26270;34.428;-119.710;2023-02-11T02:43:57;101418.20;;;17.40;41.86
40570;BME280;26270;34.428;-119.710;2023-02-11T02:46:28;101419.12;;;17.59;41.75
40570;BME280;26270;34.428;-119.710;2023-02-11T02:48:57;101419.02;;;17.44;42.24
40570;BME280;26270;34.428;-119.710;2023-02-11T02:51:37;101423.76;;;17.27;42.13
40570;BME280;26270;34.428;-119.710;2023-02-11T02:54:25;101421.43;;;17.12;41.89
40570;BME280;26270;34.428;-119.710;2023-02-11T02:56:59;101416.32;;;17.38;42.15
40570;BME280;26270;34.428;-119.710;2023-02-11T02:59:42;101411.94;;;17.14;42.57
40570;BME280;26270;34.428;-119.710;2023-02-11T03:02:19;101416.42;;;17.03;42.66
40570;BME280;26270;34.428;-119.710;2023-02-11T03:04:54;101418.15;;;16.91;43.32
40570;BME280;26270;34.428;-119.710;2023-02-11T03:07:30;101414.85;;;16.71;44.32
40570;BME280;26270;34.428;-119.710;2023-02-11T03:10:08;101414.79;;;16.97;44.38
40570;BME280;26270;34.428;-119.710;2023-02-11T03:12:40;101413.29;;;16.85;44.20
40570;BME280;26270;34.428;-119.710;2023-02-11T03:15:10;101413.35;;;16.87;45.31
40570;BME280;26270;34.428;-119.710;2023-02-11T03:17:41;101411.06;;;16.85;45.41
40570;BME280;26270;34.428;-119.710;2023-02-11T03:20:14;101408.11;;;16.78;46.08
40570;BME280;26270;34.428;-119.710;2023-02-11T03:22:47;101409.44;;;16.79;46.68
40570;BME280;26270;34.428;-119.710;2023-02-11T03:25:17;101409.08;;;16.72;47.64
40570;BME280;26270;34.428;-119.710;2023-02-11T03:27:50;101406.91;;;16.81;47.69
40570;BME280;26270;34.428;-119.710;2023-02-11T03:30:23;101404.04;;;16.65;48.28
40570;BME280;26270;34.428;-119.710;2023-02-11T03:32:57;101400.27;;;16.50;48.99
40570;BME280;26270;34.428;-119.710;2023-02-11T03:35:34;101397.01;;;16.51;48.46
40570;BME280;26270;34.428;-119.710;2023-02-11T03:38:06;101399.22;;;16.56;49.35
40570;BME280;26270;34.428;-119.710;2023-02-11T03:40:38;101397.19;;;16.60;49.82
40570;BME280;26270;34.428;-119.710;2023-02-11T03:43:09;101397.11;;;16.40;50.37
40570;BME280;26270;34.428;-119.710;2023-02-11T03:45:40;101395.60;;;16.42;50.63
40570;BME280;26270;34.428;-119.710;2023-02-11T03:48:18;101392.08;;;16.32;50.51
40570;BME280;26270;34.428;-119.710;2023-02-11T03:50:50;101391.96;;;16.15;50.66
40570;BME280;26270;34.428;-119.710;2023-02-11T03:53:20;101396.36;;;16.43;50.57
40570;BME280;26270;34.428;-119.710;2023-02-11T03:55:51;101395.88;;;16.16;50.84
40570;BME280;26270;34.428;-119.710;2023-02-11T03:58:20;101398.67;;;16.15;50.11
40570;BME280;26270;34.428;-119.710;2023-02-11T04:00:49;101399.61;;;16.30;49.52
40570;BME280;26270;34.428;-119.710;2023-02-11T04:03:16;101397.99;;;16.24;50.09
40570;BME280;26270;34.428;-119.710;2023-02-11T04:05:45;101394.45;;;16.13;50.18
40570;BME280;26270;34.428;-119.710;2023-02-11T04:08:13;101394.25;;;15.83;50.95
40570;BME280;26270;34.428;-119.710;2023-02-11T04:10:41;101393.79;;;15.57;51.64
40570;BME280;26270;34.428;-119.710;2023-02-11T04:13:09;101390.41;;;15.61;51.54
40570;BME280;26270;34.428;-119.710;2023-02-11T04:15:37;101390.76;;;15.20;52.66
40570;BME280;26270;34.428;-119.710;2023-02-11T04:18:05;101381.47;;;15.37;51.94
40570;BME280;26270;34.428;-119.710;2023-02-11T04:20:33;101377.92;;;15.43;51.14
40570;BME280;26270;34.428;-119.710;2023-02-11T04:23:02;101376.87;;;15.47;49.26
40570;BME280;26270;34.428;-119.710;2023-02-11T04:25:30;101374.24;;;15.57;49.39
40570;BME280;26270;34.428;-119.710;2023-02-11T04:27:58;101372.20;;;15.60;49.20
40570;BME280;26270;34.428;-119.710;2023-02-11T04:30:27;101373.13;;;15.63;47.86
40570;BME280;26270;34.428;-119.710;2023-02-11T04:32:55;101373.28;;;15.54;48.18
40570;BME280;26270;34.428;-119.710;2023-02-11T04:35:24;101378.27;;;15.46;48.53
40570;BME280;26270;34.428;-119.710;2023-02-11T04:37:52;101383.78;;;15.27;48.14
40570;BME280;26270;34.428;-119.710;2023-02-11T04:40:20;101382.13;;;15.33;47.08
40570;BME280;26270;34.428;-119.710;2023-02-11T04:42:49;101387.31;;;15.38;46.83
40570;BME280;26270;34.428;-119.710;2023-02-11T04:45:17;101388.83;;;15.35;46.78
40570;BME280;26270;34.428;-119.710;2023-02-11T04:47:45;101385.86;;;15.24;46.71
40570;BME280;26270;34.428;-119.710;2023-02-11T04:50:13;101383.68;;;15.25;46.54
40570;BME280;26270;34.428;-119.710;2023-02-11T04:52:40;101378.99;;;15.02;47.88
40570;BME280;26270;34.428;-119.710;2023-02-11T04:55:08;101374.25;;;14.83;48.40
40570;BME280;26270;34.428;-119.710;2023-02-11T04:57:36;101372.75;;;14.50;48.45
40570;BME280;26270;34.428;-119.710;2023-02-11T05:03:18;101370.24;;;14.49;48.55
40570;BME280;26270;34.428;-119.710;2023-02-11T05:05:47;101370.24;;;14.59;48.69
40570;BME280;26270;34.428;-119.710;2023-02-11T05:08:15;101369.49;;;14.48;48.63
40570;BME280;26270;34.428;-119.710;2023-02-11T05:10:45;101367.90;;;14.60;48.75
40570;BME280;26270;34.428;-119.710;2023-02-11T05:13:13;101361.27;;;14.68;48.49
40570;BME280;26270;34.428;-119.710;2023-02-11T05:15:41;101363.07;;;14.51;49.09
40570;BME280;26270;34.428;-119.710;2023-02-11T05:18:09;101366.89;;;14.37;48.97
40570;BME280;26270;34.428;-119.710;2023-02-11T05:20:37;101360.92;;;14.40;49.37
40570;BME280;26270;34.428;-119.710;2023-02-11T05:23:06;101359.94;;;14.39;49.66
40570;BME280;26270;34.428;-119.710;2023-02-11T05:25:34;101349.79;;;14.34;49.45
40570;BME280;26270;34.428;-119.710;2023-02-11T05:28:03;101347.46;;;14.53;49.54
40570;BME280;26270;34.428;-119.710;2023-02-11T05:30:32;101346.64;;;14.25;50.47
40570;BME280;26270;34.428;-119.710;2023-02-11T05:33:00;101347.20;;;14.32;49.89
40570;BME280;26270;34.428;-119.710;2023-02-11T05:35:28;101348.80;;;14.28;50.80
40570;BME280;26270;34.428;-119.710;2023-02-11T05:37:55;101340.85;;;14.40;51.24
40570;BME280;26270;34.428;-119.710;2023-02-11T05:40:23;101339.63;;;14.28;51.76
40570;BME280;26270;34.428;-119.710;2023-02-11T05:42:51;101341.57;;;14.21;52.36
40570;BME280;26270;34.428;-119.710;2023-02-11T05:45:18;101341.80;;;14.15;52.52
40570;BME280;26270;34.428;-119.710;2023-02-11T05:47:47;101340.11;;;13.87;53.03
40570;BME280;26270;34.428;-119.710;2023-02-11T05:50:15;101338.24;;;14.06;53.04
40570;BME280;26270;34.428;-119.710;2023-02-11T05:52:43;101338.87;;;14.04;53.12
40570;BME280;26270;34.428;-119.710;2023-02-11T05:55:11;101332.81;;;14.14;53.00
40570;BME280;26270;34.428;-119.710;2023-02-11T05:57:40;101332.22;;;13.88;53.51
40570;BME280;26270;34.428;-119.710;2023-02-11T06:00:10;101329.77;;;14.05;53.68
40570;BME280;26270;34.428;-119.710;2023-02-11T06:02:37;101329.61;;;14.09;54.12
40570;BME280;26270;34.428;-119.710;2023-02-11T06:05:06;101325.99;;;14.12;54.16
40570;BME280;26270;34.428;-119.710;2023-02-11T06:07:34;101324.25;;;14.03;54.47
40570;BME280;26270;34.428;-119.710;2023-02-11T06:10:03;101325.94;;;13.98;54.62
40570;BME280;26270;34.428;-119.710;2023-02-11T06:12:32;101330.41;;;13.94;53.97
40570;BME280;26270;34.428;-119.710;2023-02-11T06:14:59;101328.54;;;14.05;54.54
40570;BME280;26270;34.428;-119.710;2023-02-11T06:17:27;101327.60;;;13.79;55.79
40570;BME280;26270;34.428;-119.710;2023-02-11T06:19:55;101328.71;;;13.88;55.24
40570;BME280;26270;34.428;-119.710;2023-02-11T06:22:24;101326.86;;;13.85;55.78
40570;BME280;26270;34.428;-119.710;2023-02-11T06:24:52;101320.62;;;13.83;55.63
40570;BME280;26270;34.428;-119.710;2023-02-11T06:27:20;101318.12;;;13.91;56.25
40570;BME280;26270;34.428;-119.710;2023-02-11T06:29:48;101315.69;;;13.96;56.04
40570;BME280;26270;34.428;-119.710;2023-02-11T06:32:16;101309.56;;;13.57;57.10
40570;BME280;26270;34.428;-119.710;2023-02-11T06:34:44;101304.57;;;13.64;57.02
40570;BME280;26270;34.428;-119.710;2023-02-11T06:37:12;101305.06;;;13.63;56.55
40570;BME280;26270;34.428;-119.710;2023-02-11T06:39:42;101302.22;;;13.67;56.82
40570;BME280;26270;34.428;-119.710;2023-02-11T06:42:10;101302.04;;;13.65;57.04
40570;BME280;26270;34.428;-119.710;2023-02-11T06:44:38;101293.78;;;13.81;56.86
40570;BME280;26270;34.428;-119.710;2023-02-11T06:47:07;101291.20;;;13.62;56.89
40570;BME280;26270;34.428;-119.710;2023-02-11T06:49:35;101289.50;;;13.60;55.88
40570;BME280;26270;34.428;-119.710;2023-02-11T06:52:03;101288.57;;;13.74;55.34
40570;BME280;26270;34.428;-119.710;2023-02-11T06:54:32;101285.68;;;13.73;55.89
40570;BME280;26270;34.428;-119.710;2023-02-11T06:57:00;101286.53;;;13.54;55.92
40570;BME280;26270;34.428;-119.710;2023-02-11T06:59:28;101279.72;;;13.59;56.02
40570;BME280;26270;34.428;-119.710;2023-02-11T07:01:56;101271.53;;;13.48;55.86
40570;BME280;26270;34.428;-119.710;2023-02-11T07:04:24;101265.63;;;13.31;56.48
40570;BME280;26270;34.428;-119.710;2023-02-11T07:06:52;101266.80;;;13.37;55.98
40570;BME280;26270;34.428;-119.710;2023-02-11T07:09:20;101263.07;;;13.07;55.81
40570;BME280;26270;34.428;-119.710;2023-02-11T07:11:48;101260.47;;;13.28;55.40
40570;BME280;26270;34.428;-119.710;2023-02-11T07:14:17;101256.42;;;13.33;55.59
40570;BME280;26270;34.428;-119.710;2023-02-11T07:16:45;101251.23;;;13.25;55.39
40570;BME280;26270;34.428;-119.710;2023-02-11T07:19:13;101253.55;;;13.10;55.96
40570;BME280;26270;34.428;-119.710;2023-02-11T07:21:41;101250.85;;;13.28;55.63
40570;BME280;26270;34.428;-119.710;2023-02-11T07:24:09;101244.36;;;13.28;55.48
40570;BME280;26270;34.428;-119.710;2023-02-11T07:26:37;101244.34;;;13.41;56.31
40570;BME280;26270;34.428;-119.710;2023-02-11T07:29:05;101242.22;;;13.32;57.07
40570;BME280;26270;34.428;-119.710;2023-02-11T07:31:33;101237.15;;;13.19;57.78
40570;BME280;26270;34.428;-119.710;2023-02-11T07:34:01;101231.32;;;13.10;57.72
40570;BME280;26270;34.428;-119.710;2023-02-11T07:36:30;101225.45;;;13.09;58.25
40570;BME280;26270;34.428;-119.710;2023-02-11T07:38:59;101221.00;;;12.96;58.30
40570;BME280;26270;34.428;-119.710;2023-02-11T07:41:27;101216.21;;;13.15;57.70
40570;BME280;26270;34.428;-119.710;2023-02-11T07:43:56;101214.04;;;13.01;57.96
40570;BME280;26270;34.428;-119.710;2023-02-11T07:46:25;101217.06;;;12.91;58.36
40570;BME280;26270;34.428;-119.710;2023-02-11T07:48:54;101206.40;;;13.00;57.62
40570;BME280;26270;34.428;-119.710;2023-02-11T07:51:24;101199.53;;;12.99;56.84
40570;BME280;26270;34.428;-119.710;2023-02-11T07:53:52;101199.26;;;13.05;56.69
40570;BME280;26270;34.428;-119.710;2023-02-11T07:56:21;101195.77;;;13.03;56.07
40570;BME280;26270;34.428;-119.710;2023-02-11T07:58:49;101189.57;;;12.87;56.69
40570;BME280;26270;34.428;-119.710;2023-02-11T08:01:19;101191.94;;;12.92;57.11
40570;BME280;26270;34.428;-119.710;2023-02-11T08:03:47;101190.14;;;12.83;57.11
40570;BME280;26270;34.428;-119.710;2023-02-11T08:06:18;101186.14;;;12.92;57.52
40570;BME280;26270;34.428;-119.710;2023-02-11T08:08:47;101188.38;;;12.62;57.63
40570;BME280;26270;34.428;-119.710;2023-02-11T08:11:18;101186.20;;;12.66;57.61
40570;BME280;26270;34.428;-119.710;2023-02-11T08:13:47;101181.90;;;12.46;58.43
40570;BME280;26270;34.428;-119.710;2023-02-11T08:16:18;101179.55;;;12.55;58.56
40570;BME280;26270;34.428;-119.710;2023-02-11T08:18:47;101176.39;;;12.56;59.34
40570;BME280;26270;34.428;-119.710;2023-02-11T08:21:16;101178.73;;;12.40;60.37
40570;BME280;26270;34.428;-119.710;2023-02-11T08:23:44;101177.55;;;11.97;61.87
40570;BME280;26270;34.428;-119.710;2023-02-11T08:26:15;101162.30;;;12.37;61.23
40570;BME280;26270;34.428;-119.710;2023-02-11T08:28:44;101156.58;;;12.29;60.38
40570;BME280;26270;34.428;-119.710;2023-02-11T08:31:15;101153.65;;;12.46;59.93
40570;BME280;26270;34.428;-119.710;2023-02-11T08:33:44;101144.70;;;12.45;60.01
40570;BME280;26270;34.428;-119.710;2023-02-11T08:36:14;101141.10;;;12.41;59.89
40570;BME280;26270;34.428;-119.710;2023-02-11T08:38:43;101138.90;;;12.28;59.84
40570;BME280;26270;34.428;-119.710;2023-02-11T08:41:11;101131.29;;;12.47;58.47
40570;BME280;26270;34.428;-119.710;2023-02-11T08:43:39;101132.22;;;12.31;58.92
40570;BME280;26270;34.428;-119.710;2023-02-11T08:46:08;101126.17;;;12.42;58.61
40570;BME280;26270;34.428;-119.710;2023-02-11T08:48:36;101126.63;;;12.52;57.54
40570;BME280;26270;34.428;-119.710;2023-02-11T08:51:06;101128.27;;;12.57;58.38
40570;BME280;26270;34.428;-119.710;2023-02-11T08:53:34;101129.62;;;12.42;58.26
40570;BME280;26270;34.428;-119.710;2023-02-11T08:56:03;101133.89;;;12.66;58.69
40570;BME280;26270;34.428;-119.710;2023-02-11T08:58:31;101135.18;;;12.51;58.53
40570;BME280;26270;34.428;-119.710;2023-02-11T09:00:59;101129.44;;;12.63;58.36
40570;BME280;26270;34.428;-119.710;2023-02-11T09:03:27;101131.15;;;12.46;58.76
40570;BME280;26270;34.428;-119.710;2023-02-11T09:05:54;101132.87;;;12.31;58.76
40570;BME280;26270;34.428;-119.710;2023-02-11T09:08:22;101134.77;;;12.25;59.10
40570;BME280;26270;34.428;-119.710;2023-02-11T09:10:51;101136.64;;;12.10;60.11
40570;BME280;26270;34.428;-119.710;2023-02-11T09:13:19;101135.03;;;12.08;60.43
40570;BME280;26270;34.428;-119.710;2023-02-11T09:15:47;101135.16;;;11.86;61.04
40570;BME280;26270;34.428;-119.710;2023-02-11T09:18:15;101133.74;;;11.82;61.54
40570;BME280;26270;34.428;-119.710;2023-02-11T09:20:43;101128.05;;;11.84;60.49
40570;BME280;26270;34.428;-119.710;2023-02-11T09:23:11;101129.64;;;12.08;60.59
40570;BME280;26270;34.428;-119.710;2023-02-11T09:25:39;101126.94;;;11.85;60.84
40570;BME280;26270;34.428;-119.710;2023-02-11T09:28:08;101119.79;;;11.95;61.25
40570;BME280;26270;34.428;-119.710;2023-02-11T09:30:37;101116.03;;;11.93;61.42
40570;BME280;26270;34.428;-119.710;2023-02-11T09:33:05;101116.67;;;11.71;61.98
40570;BME280;26270;34.428;-119.710;2023-02-11T09:35:33;101113.84;;;11.79;62.00
40570;BME280;26270;34.428;-119.710;2023-02-11T09:38:01;101106.95;;;11.78;61.77
40570;BME280;26270;34.428;-119.710;2023-02-11T09:40:29;101104.49;;;11.89;61.84
40570;BME280;26270;34.428;-119.710;2023-02-11T09:43:02;101101.80;;;11.71;61.86
40570;BME280;26270;34.428;-119.710;2023-02-11T09:45:31;101100.92;;;11.58;62.58
40570;BME280;26270;34.428;-119.710;2023-02-11T09:48:03;101098.21;;;11.84;61.52
40570;BME280;26270;34.428;-119.710;2023-02-11T09:50:35;101099.41;;;11.63;62.17
40570;BME280;26270;34.428;-119.710;2023-02-11T09:53:10;101098.70;;;11.59;62.69
40570;BME280;26270;34.428;-119.710;2023-02-11T09:55:44;101095.51;;;11.65;63.17
40570;BME280;26270;34.428;-119.710;2023-02-11T09:58:15;101088.85;;;11.49;63.39
40570;BME280;26270;34.428;-119.710;2023-02-11T10:00:46;101084.51;;;11.63;63.01
40570;BME280;26270;34.428;-119.710;2023-02-11T10:03:34;101082.31;;;11.73;62.36
40570;BME280;26270;34.428;-119.710;2023-02-11T10:06:16;101080.59;;;11.70;62.56
40570;BME280;26270;34.428;-119.710;2023-02-11T10:08:56;101073.96;;;11.93;62.46
40570;BME280;26270;34.428;-119.710;2023-02-11T10:11:30;101071.07;;;11.93;61.98
40570;BME280;26270;34.428;-119.710;2023-02-11T10:14:11;101072.31;;;11.74;62.17
40570;BME280;26270;34.428;-119.710;2023-02-11T10:16:57;101067.34;;;11.65;62.16
40570;BME280;26270;34.428;-119.710;2023-02-11T10:19:42;101063.73;;;11.76;62.34
40570;BME280;26270;34.428;-119.710;2023-02-11T10:22:19;101066.55;;;11.32;63.24
40570;BME280;26270;34.428;-119.710;2023-02-11T10:24:51;101066.13;;;11.39;63.12
40570;BME280;26270;34.428;-119.710;2023-02-11T10:27:27;101062.47;;;11.47;63.01
40570;BME280;26270;34.428;-119.710;2023-02-11T10:30:01;101058.75;;;11.36;63.21
40570;BME280;26270;34.428;-119.710;2023-02-11T10:32:37;101055.96;;;11.52;63.10
40570;BME280;26270;34.428;-119.710;2023-02-11T10:35:13;101054.23;;;11.42;63.16
40570;BME280;26270;34.428;-119.710;2023-02-11T10:37:42;101052.06;;;11.39;62.19
40570;BME280;26270;34.428;-119.710;2023-02-11T10:40:13;101050.61;;;11.30;63.30
40570;BME280;26270;34.428;-119.710;2023-02-11T10:42:46;101047.85;;;11.29;63.54
40570;BME280;26270;34.428;-119.710;2023-02-11T10:45:31;101047.71;;;11.11;63.85
40570;BME280;26270;34.428;-119.710;2023-02-11T10:47:59;101043.53;;;11.22;63.59
40570;BME280;26270;34.428;-119.710;2023-02-11T10:50:30;101045.97;;;11.15;63.21
40570;BME280;26270;34.428;-119.710;2023-02-11T10:53:14;101040.71;;;11.18;62.38
40570;BME280;26270;34.428;-119.710;2023-02-11T10:55:51;101036.92;;;11.16;62.82
40570;BME280;26270;34.428;-119.710;2023-02-11T10:58:25;101037.82;;;10.93;63.58
40570;BME280;26270;34.428;-119.710;2023-02-11T11:00:57;101030.50;;;11.12;63.44
40570;BME280;26270;34.428;-119.710;2023-02-11T11:03:28;101024.97;;;10.75;65.07
40570;BME280;26270;34.428;-119.710;2023-02-11T11:05:59;101019.77;;;10.73;64.75
40570;BME280;26270;34.428;-119.710;2023-02-11T11:08:39;101016.49;;;10.76;65.24
40570;BME280;26270;34.428;-119.710;2023-02-11T11:11:09;101011.03;;;10.91;64.34
40570;BME280;26270;34.428;-119.710;2023-02-11T11:13:39;101010.73;;;10.72;64.39
40570;BME280;26270;34.428;-119.710;2023-02-11T11:16:17;101007.72;;;10.98;63.92
40570;BME280;26270;34.428;-119.710;2023-02-11T11:18:47;101000.34;;;10.90;64.05
40570;BME280;26270;34.428;-119.710;2023-02-11T11:21:18;100999.72;;;10.90;64.18
40570;BME280;26270;34.428;-119.710;2023-02-11T11:23:50;100993.18;;;10.77;64.70
40570;BME280;26270;34.428;-119.710;2023-02-11T11:26:19;100990.52;;;10.67;64.50
40570;BME280;26270;34.428;-119.710;2023-02-11T11:28:56;100989.45;;;10.77;64.81
40570;BME280;26270;34.428;-119.710;2023-02-11T11:31:29;100987.78;;;10.61;64.37
40570;BME280;26270;34.428;-119.710;2023-02-11T11:34:00;100985.57;;;10.72;64.27
40570;BME280;26270;34.428;-119.710;2023-02-11T11:36:35;100984.62;;;10.62;64.14
40570;BME280;26270;34.428;-119.710;2023-02-11T11:39:21;100979.41;;;10.44;63.57
40570;BME280;26270;34.428;-119.710;2023-02-11T11:41:53;100978.44;;;10.55;63.41
40570;BME280;26270;34.428;-119.710;2023-02-11T11:44:26;100978.68;;;10.48;63.19
40570;BME280;26270;34.428;-119.710;2023-02-11T11:47:16;100974.24;;;10.61;63.16
40570;BME280;26270;34.428;-119.710;2023-02-11T11:49:53;100970.81;;;10.59;62.83
40570;BME280;26270;34.428;-119.710;2023-02-11T11:52:34;100973.44;;;10.44;63.25
40570;BME280;26270;34.428;-119.710;2023-02-11T11:55:10;100968.44;;;10.77;62.95
40570;BME280;26270;34.428;-119.710;2023-02-11T11:57:41;100964.51;;;10.58;63.01
40570;BME280;26270;34.428;-119.710;2023-02-11T12:00:16;100958.48;;;10.79;63.14
40570;BME280;26270;34.428;-119.710;2023-02-11T12:03:02;100947.02;;;10.71;63.06
40570;BME280;26270;34.428;-119.710;2023-02-11T12:05:42;100940.16;;;10.86;62.76
40570;BME280;26270;34.428;-119.710;2023-02-11T12:08:17;100939.27;;;10.65;62.49
40570;BME280;26270;34.428;-119.710;2023-02-11T12:10:55;100939.31;;;10.60;61.94
40570;BME280;26270;34.428;-119.710;2023-02-11T12:13:38;100942.46;;;10.60;62.29
40570;BME280;26270;34.428;-119.710;2023-02-11T12:16:15;100938.44;;;10.75;61.95
40570;BME280;26270;34.428;-119.710;2023-02-11T12:19:33;100935.57;;;10.74;61.73
40570;BME280;26270;34.428;-119.710;2023-02-11T12:22:10;100925.12;;;10.79;61.40
40570;BME280;26270;34.428;-119.710;2023-02-11T12:24:50;100925.57;;;10.76;60.71
40570;BME280;26270;34.428;-119.710;2023-02-11T12:27:27;100919.37;;;10.66;60.91
40570;BME280;26270;34.428;-119.710;2023-02-11T12:30:06;100916.82;;;10.68;61.23
40570;BME280;26270;34.428;-119.710;2023-02-11T12:32:47;100917.27;;;10.64;61.54
40570;BME280;26270;34.428;-119.710;2023-02-11T12:35:24;100922.15;;;10.49;61.52
40570;BME280;26270;34.428;-119.710;2023-02-11T12:38:11;100927.40;;;10.33;62.72
40570;BME280;26270;34.428;-119.710;2023-02-11T12:40:47;100931.23;;;10.59;62.64
40570;BME280;26270;34.428;-119.710;2023-02-11T12:43:22;100931.15;;;10.34;62.51
40570;BME280;26270;34.428;-119.710;2023-02-11T12:47:02;100928.64;;;10.49;62.19
40570;BME280;26270;34.428;-119.710;2023-02-11T12:49:46;100923.24;;;10.36;62.80